WetterOnline ( http://www.wetteronline.de )

Wetter aktuell Paderborn

Aktuelles Wetter: Bad Lippspringe (158m)

6-stündlich | Neueste Meldungen
Ortszeit Temperatur Wetter
Mo, 20.08. 8:00 19.2° C bedeckt
Mo, 20.08. 2:00 16.5° C wolkig
So, 19.08. 20:00 24.8° C wolkenlos
So, 19.08. 14:00 25.2° C leicht bewölkt
So, 19.08. 8:00 15.6° C wolkig
So, 19.08. 2:00 13.2° C wolkig
Sa, 18.08. 20:00 23.2° C leicht bewölkt
Sa, 18.08. 14:00 23.8° C fast wolkenlos
Ortszeit Temperatur Wetter
Mo, 20.08. 8:00 19.2° C bedeckt
Mo, 20.08. 7:50 19.2° C bedeckt
Mo, 20.08. 7:40 19.1° C bedeckt
Mo, 20.08. 7:30 19.1° C bedeckt
Mo, 20.08. 7:20 19.1° C bedeckt
Mo, 20.08. 7:10 19.0° C bedeckt
Mo, 20.08. 7:00 19.0° C bedeckt
Mo, 20.08. 6:30 19.0° C bedeckt
Mo, 20.08. 6:00 19.2° C bedeckt
Mo, 20.08. 5:30 19.5° C bedeckt
Mo, 20.08. 5:00 19.5° C bedeckt
Ortszeit Relative Feuchte Sichtweite
Mo, 20.08. 8:00 80% 19 km
Mo, 20.08. 2:00 80% 26 km
So, 19.08. 20:00 43% 35 km
So, 19.08. 14:00 46% 24 km
So, 19.08. 8:00 82% 10 km
So, 19.08. 2:00 84% 35 km
Sa, 18.08. 20:00 39% 55 km
Sa, 18.08. 14:00 39% 17 km
Ortszeit Relative Feuchte Sichtweite
Mo, 20.08. 8:00 80% 19 km
Mo, 20.08. 7:50 80% -
Mo, 20.08. 7:40 81% -
Mo, 20.08. 7:30 81% 18 km
Mo, 20.08. 7:20 81% -
Mo, 20.08. 7:10 81% -
Mo, 20.08. 7:00 81% 16 km
Mo, 20.08. 6:30 80% 15 km
Mo, 20.08. 6:00 78% 15 km
Mo, 20.08. 5:30 77% 14 km
Mo, 20.08. 5:00 76% 15 km
Ortszeit Niederschlagsmenge Niederschlagsart
Mo, 20.08. 8:00 0.0 l/m2 in 12 Std. -
Mo, 20.08. 2:00 0.0 l/m2 in 6 Std. -
So, 19.08. 20:00 0.0 l/m2 in 12 Std. -
So, 19.08. 14:00 0.0 l/m2 in 6 Std. -
So, 19.08. 8:00 0.0 l/m2 in 12 Std. -
So, 19.08. 2:00 0.0 l/m2 in 6 Std. -
Sa, 18.08. 20:00 0.0 l/m2 in 12 Std. -
Sa, 18.08. 14:00 0.0 l/m2 in 6 Std. -
Ortszeit Niederschlagsmenge Niederschlagsart
Mo, 20.08. 8:00 0.0 l/m2 in 1 Std. -
Mo, 20.08. 7:50 keine Meldung -
Mo, 20.08. 7:40 keine Meldung -
Mo, 20.08. 7:30 0.0 l/m2 in 1 Std. -
Mo, 20.08. 7:20 keine Meldung -
Mo, 20.08. 7:10 keine Meldung -
Mo, 20.08. 7:00 0.0 l/m2 in 1 Std. -
Mo, 20.08. 6:30 0.0 l/m2 in 1 Std. -
Mo, 20.08. 6:00 0.0 l/m2 in 1 Std. -
Mo, 20.08. 5:30 0.0 l/m2 in 1 Std. -
Mo, 20.08. 5:00 0.0 l/m2 in 1 Std. -
Ortszeit Stärke Spitze Richtung
km/h Bft. km/h Grad Sektor
Mo, 20.08. 8:00 11 2 22 270° W
Mo, 20.08. 2:00 4 1 22 180° S
So, 19.08. 20:00 13 3 31 290° W
So, 19.08. 14:00 11 2 25 250° W
So, 19.08. 8:00 0 0 7 - -
So, 19.08. 2:00 2 1 15 90° O
Sa, 18.08. 20:00 13 3 31 290° W
Sa, 18.08. 14:00 19 3 30 230° SW
Ortszeit Stärke Spitze Richtung
km/h Bft. km/h Grad Sektor
Mo, 20.08. 8:00 11 2 14 270° W
Mo, 20.08. 7:50 11 2 - 270° W
Mo, 20.08. 7:40 11 2 - 260° W
Mo, 20.08. 7:30 9 2 15 260° W
Mo, 20.08. 7:20 9 2 - 260° W
Mo, 20.08. 7:10 9 2 - 260° W
Mo, 20.08. 7:00 11 2 18 260° W
Mo, 20.08. 6:30 11 2 18 270° W
Mo, 20.08. 6:00 13 3 22 260° W
Mo, 20.08. 5:30 13 3 19 260° W
Mo, 20.08. 5:00 9 2 15 240° SW
Ortszeit Untergrenze Bedeckung Gattung
total tief tief mittel hoch
Mo, 20.08. 8:00 540 m 8/8 8/8 - - -
Mo, 20.08. 2:00 1050 m 6/8 6/8 - - -
So, 19.08. 20:00 2400 m 0/8 0/8 - - -
So, 19.08. 14:00 2100 m 4/8 2/8 - - -
So, 19.08. 8:00 - 8/8 - - - -
So, 19.08. 2:00 10500 m 8/8 0/8 - - -
Sa, 18.08. 20:00 9000 m 8/8 0/8 - - -
Sa, 18.08. 14:00 1500 m 1/8 1/8 - - -
Ortszeit Bedeckungsgrad in Achtel und Wolkenuntergrenze
Mo, 20.08. 8:00 8(540m) 8(1350m)
Mo, 20.08. 7:50 8(540m) 8(1350m)
Mo, 20.08. 7:40 7(510m) 8(1260m)
Mo, 20.08. 7:30 1(570m) 8(1230m)
Mo, 20.08. 7:20 1(570m) 8(1230m)
Mo, 20.08. 7:10 1(840m) 8(1230m)
Mo, 20.08. 7:00 5(810m) 8(1230m)
Mo, 20.08. 6:30 8(1260m) 8(1260m)
Mo, 20.08. 6:00 8(1230m)
Mo, 20.08. 5:30 3(690m) 8(1080m)
Mo, 20.08. 5:00 8(870m) 8(930m)
Ortszeit Luftdruck NN (hPa) Tendenz (hPa in 3 Std.)
Mo, 20.08. 8:00 1018 + 0,7
Mo, 20.08. 2:00 1018 + 0,2
So, 19.08. 20:00 1017 - 0,5
So, 19.08. 14:00 1020 - 1,8
So, 19.08. 8:00 1022 - 0,3
So, 19.08. 2:00 1023 + 0,6
Sa, 18.08. 20:00 1021 + 0,1
Sa, 18.08. 14:00 1022 - 0,5
Ortszeit Luftdruck NN (hPa) Tendenz (hPa in 3 Std.)
Mo, 20.08. 8:00 1018 + 0,7
Mo, 20.08. 7:50 1018 keine Meldung
Mo, 20.08. 7:40 1018 keine Meldung
Mo, 20.08. 7:30 1018 + 0,2
Mo, 20.08. 7:20 1018 keine Meldung
Mo, 20.08. 7:10 1018 keine Meldung
Mo, 20.08. 7:00 1018 - 0,2
Mo, 20.08. 6:30 1018 - 0,4
Mo, 20.08. 6:00 1017 - 0,6
Mo, 20.08. 5:30 1017 - 0,7
Mo, 20.08. 5:00 1017 - 0,7
Ortszeit Schneehöhe (cm)
Mo, 20.08. 8:00 -
Mo, 20.08. 2:00 -
So, 19.08. 20:00 -
So, 19.08. 14:00 -
So, 19.08. 8:00 -
So, 19.08. 2:00 -
Sa, 18.08. 20:00 -
Sa, 18.08. 14:00 -
Ortszeit Schneehöhe (cm)
Mo, 20.08. 8:00 -
Mo, 20.08. 7:50 -
Mo, 20.08. 7:40 -
Mo, 20.08. 7:30 -
Mo, 20.08. 7:20 -
Mo, 20.08. 7:10 -
Mo, 20.08. 7:00 -
Mo, 20.08. 6:30 -
Mo, 20.08. 6:00 -
Mo, 20.08. 5:30 -
Mo, 20.08. 5:00 -
Link zu dieser Seite / Seite empfehlen

Das Wetter in ...